Time;durP1;ratioP1;P1;durP2;ratioP2;P2;SDS_P1;SDS_P2;PMS_P1;PMS_P2;Temp;Humidity;BMP_temperature;BMP_pressure;BME280_temperature;BME280_humidity;BME280_pressure;Samples;Min_cycle;Max_cycle;Signal;HPM_P1;HPM_P2
2022/04/07 00:00:09;;;;;;;;;;;;;;;;;;4992542;28;19948;-71
2022/04/07 00:02:35;;;;;;;;;;;;;;;;;;4986026;28;20435;-72
2022/04/07 00:05:01;;;;;;;;;;;;;;;;;;4991381;28;19934;-72
2022/04/07 00:07:27;;;;;;;;;;;;;;;;;;4992279;28;20344;-70
2022/04/07 00:09:53;;;;;;;;;;;;;;;;;;4993371;28;19942;-73
2022/04/07 00:12:19;;;;;;;;;;;;;;;;;;4992748;28;19936;-75
2022/04/07 00:14:45;;;;;;;;;;;;;;;;;;4989027;28;19934;-75
2022/04/07 00:17:11;;;;;;;;;;;;;;;;;;4993839;28;20021;-76
2022/04/07 00:19:38;;;;;;;;;;;;;;;;;;4994790;28;19933;-74
2022/04/07 00:22:04;;;;;;;;;;;;;;;;;;4994192;28;20020;-75
2022/04/07 00:24:30;;;;;;;;;;;;;;;;;;4994418;28;20009;-74
2022/04/07 00:26:56;;;;;;;;;;;;;;;;;;4993171;28;19980;-75
2022/04/07 00:29:22;;;;;;;;;;;;;;;;;;4993905;28;19933;-73
2022/04/07 00:31:55;;;;;;;;;;;;;;;;;;4993570;28;20320;-75
2022/04/07 00:34:22;;;;;;;;;;;;;;;;;;4995204;28;19926;-75
2022/04/07 00:36:48;;;;;;;;;;;;;;;;;;4993957;28;20320;-74
2022/04/07 00:39:14;;;;;;;;;;;;;;;;;;4994968;28;19933;-75
2022/04/07 00:41:42;;;;;;;;;;;;;;;;;;4991518;28;19930;-75
2022/04/07 00:44:09;;;;;;;;;;;;;;;;;;4992057;28;19926;-74
2022/04/07 00:46:35;;;;;;;;;;;;;;;;;;4990717;28;19925;-76
2022/04/07 00:49:01;;;;;;;;;;;;;;;;;;4989135;28;19941;-76
2022/04/07 00:51:27;;;;;;;;;;;;;;;;;;4992451;28;19933;-77
2022/04/07 00:53:53;;;;;;;;;;;;;;;;;;4991426;28;19933;-76
2022/04/07 00:56:19;;;;;;;;;;;;;;;;;;4993152;28;20028;-77
2022/04/07 00:58:47;;;;;;;;;;;;;;;;;;4993130;28;19937;-77
2022/04/07 01:01:13;;;;;;;;;;;;;;;;;;4990175;28;19953;-76
2022/04/07 01:03:39;;;;;;;;;;;;;;;;;;4991635;28;19949;-74
2022/04/07 01:06:05;;;;;;;;;;;;;;;;;;4992108;28;19963;-75
2022/04/07 01:08:31;;;;;;;;;;;;;;;;;;4991920;28;20385;-74
2022/04/07 01:10:57;;;;;;;;;;;;;;;;;;4988679;28;19933;-73
2022/04/07 01:13:23;;;;;;;;;;;;;;;;;;4990075;28;19933;-72
2022/04/07 01:15:49;;;;;;;;;;;;;;;;;;4990461;28;19988;-74
2022/04/07 01:18:16;;;;;;;;;;;;;;;;;;4991639;28;19930;-73
2022/04/07 01:20:42;;;;;;;;;;;;;;;;;;4990951;28;20305;-72
2022/04/07 01:23:08;;;;;;;;;;;;;;;;;;4991237;28;19980;-74
2022/04/07 01:25:34;;;;;;;;;;;;;;;;;;4996316;28;19976;-73
2022/04/07 01:28:01;;;;;;;;;;;;;;;;;;4994172;28;19953;-73
2022/04/07 01:30:27;;;;;;;;;;;;;;;;;;4992403;28;19930;-74
2022/04/07 01:32:53;;;;;;;;;;;;;;;;;;4989181;28;20326;-72
2022/04/07 01:35:21;;;;;;;;;;;;;;;;;;4993169;28;20004;-73
2022/04/07 01:37:48;;;;;;;;;;;;;;;;;;4992831;28;19926;-74
2022/04/07 01:40:14;;;;;;;;;;;;;;;;;;4991967;28;19926;-71
2022/04/07 01:42:40;;;;;;;;;;;;;;;;;;4988248;28;19926;-73
2022/04/07 01:45:06;;;;;;;;;;;;;;;;;;4989930;28;19926;-74
2022/04/07 01:47:32;;;;;;;;;;;;;;;;;;4991586;28;20332;-72
2022/04/07 01:49:58;;;;;;;;;;;;;;;;;;4991698;28;19930;-72
2022/04/07 01:52:24;;;;;;;;;;;;;;;;;;4989820;28;19930;-75
2022/04/07 01:54:50;;;;;;;;;;;;;;;;;;4992444;28;20017;-75
2022/04/07 01:57:20;;;;;;;;;;;;;;;;;;4989504;28;19933;-74
2022/04/07 01:59:46;;;;;;;;;;;;;;;;;;4989191;28;20419;-72
2022/04/07 02:02:12;;;;;;;;;;;;;;;;;;4988719;28;20008;-73
2022/04/07 02:04:39;;;;;;;;;;;;;;;;;;4991507;28;20036;-74
2022/04/07 02:07:05;;;;;;;;;;;;;;;;;;4990904;28;19926;-75
2022/04/07 02:09:33;;;;;;;;;;;;;;;;;;4990958;28;19926;-74
2022/04/07 02:12:00;;;;;;;;;;;;;;;;;;4988628;28;19930;-73
2022/04/07 02:14:27;;;;;;;;;;;;;;;;;;4987390;28;19988;-73
2022/04/07 02:16:53;;;;;;;;;;;;;;;;;;4988889;28;19925;-76
2022/04/07 02:19:19;;;;;;;;;;;;;;;;;;4990998;28;19933;-74
2022/04/07 02:21:45;;;;;;;;;;;;;;;;;;4988939;28;19980;-76
2022/04/07 02:24:12;;;;;;;;;;;;;;;;;;4991391;28;19985;-76
2022/04/07 02:26:38;;;;;;;;;;;;;;;;;;4990766;28;19926;-75
2022/04/07 02:29:05;;;;;;;;;;;;;;;;;;4990827;28;20313;-76
2022/04/07 02:31:31;;;;;;;;;;;;;;;;;;4989251;28;19926;-77
2022/04/07 02:33:57;;;;;;;;;;;;;;;;;;4991247;28;20516;-76
2022/04/07 02:36:23;;;;;;;;;;;;;;;;;;4991080;28;19926;-75
2022/04/07 02:38:50;;;;;;;;;;;;;;;;;;4990818;28;19931;-74
2022/04/07 02:41:16;;;;;;;;;;;;;;;;;;4988963;28;19926;-74
2022/04/07 02:43:42;;;;;;;;;;;;;;;;;;4990759;28;19926;-75
2022/04/07 02:46:08;;;;;;;;;;;;;;;;;;4988444;28;19929;-74
2022/04/07 02:48:34;;;;;;;;;;;;;;;;;;4988060;28;19937;-75
2022/04/07 02:51:01;;;;;;;;;;;;;;;;;;4988444;28;19933;-74
2022/04/07 02:53:27;;;;;;;;;;;;;;;;;;4985524;28;20319;-75
2022/04/07 02:55:53;;;;;;;;;;;;;;;;;;4990189;28;19926;-74
2022/04/07 02:58:19;;;;;;;;;;;;;;;;;;4990047;28;19929;-74
2022/04/07 03:00:45;;;;;;;;;;;;;;;;;;4988183;28;20352;-75
2022/04/07 03:03:12;;;;;;;;;;;;;;;;;;4990219;28;20289;-75
2022/04/07 03:05:38;;;;;;;;;;;;;;;;;;4990569;28;20358;-73
2022/04/07 03:08:04;;;;;;;;;;;;;;;;;;4990322;28;19929;-73
2022/04/07 03:10:30;;;;;;;;;;;;;;;;;;4989598;28;20385;-75
2022/04/07 03:12:57;;;;;;;;;;;;;;;;;;4992057;28;20021;-74
2022/04/07 03:15:23;;;;;;;;;;;;;;;;;;4993310;28;19940;-73
2022/04/07 03:17:49;;;;;;;;;;;;;;;;;;4994348;28;19941;-75
2022/04/07 03:20:15;;;;;;;;;;;;;;;;;;4994447;28;19926;-74
2022/04/07 03:22:43;;;;;;;;;;;;;;;;;;4989612;28;19934;-73
2022/04/07 03:25:09;;;;;;;;;;;;;;;;;;4993887;28;20297;-74
2022/04/07 03:27:35;;;;;;;;;;;;;;;;;;4993628;28;19933;-75
2022/04/07 03:30:01;;;;;;;;;;;;;;;;;;4994510;28;19933;-73
2022/04/07 03:32:27;;;;;;;;;;;;;;;;;;4991802;28;19926;-75
2022/04/07 03:34:53;;;;;;;;;;;;;;;;;;4994527;28;19933;-74
2022/04/07 03:37:20;;;;;;;;;;;;;;;;;;4994712;28;19926;-75
2022/04/07 03:39:47;;;;;;;;;;;;;;;;;;4994657;28;19965;-74
2022/04/07 03:42:13;;;;;;;;;;;;;;;;;;5000016;28;19972;-75
2022/04/07 03:44:39;;;;;;;;;;;;;;;;;;4997723;28;19936;-75
2022/04/07 03:47:06;;;;;;;;;;;;;;;;;;4990312;28;19926;-74
2022/04/07 03:49:32;;;;;;;;;;;;;;;;;;4994565;28;19989;-76
2022/04/07 03:51:58;;;;;;;;;;;;;;;;;;4995719;28;19925;-76
2022/04/07 03:54:24;;;;;;;;;;;;;;;;;;4998289;28;20125;-76
2022/04/07 03:56:51;;;;;;;;;;;;;;;;;;4993487;28;19929;-74
2022/04/07 03:59:17;;;;;;;;;;;;;;;;;;4995785;28;19933;-75
2022/04/07 04:01:44;;;;;;;;;;;;;;;;;;4993083;28;19945;-73
2022/04/07 04:04:10;;;;;;;;;;;;;;;;;;4995384;28;19982;-73
2022/04/07 04:06:36;;;;;;;;;;;;;;;;;;4995501;28;19926;-74
2022/04/07 04:09:02;;;;;;;;;;;;;;;;;;4994044;28;20128;-73
2022/04/07 04:11:29;;;;;;;;;;;;;;;;;;4994500;28;19932;-74
2022/04/07 04:13:55;;;;;;;;;;;;;;;;;;4989771;28;19936;-74
2022/04/07 04:16:21;;;;;;;;;;;;;;;;;;4991826;28;20180;-76
2022/04/07 04:18:47;;;;;;;;;;;;;;;;;;4990025;28;20389;-74
2022/04/07 04:21:13;;;;;;;;;;;;;;;;;;4992345;28;20401;-73
2022/04/07 04:23:40;;;;;;;;;;;;;;;;;;4991675;28;19929;-74
2022/04/07 04:26:06;;;;;;;;;;;;;;;;;;4992775;28;20425;-75
2022/04/07 04:28:32;;;;;;;;;;;;;;;;;;4990003;28;20144;-75
2022/04/07 04:30:58;;;;;;;;;;;;;;;;;;4991597;28;20313;-76
2022/04/07 04:33:25;;;;;;;;;;;;;;;;;;4991381;28;20388;-76
2022/04/07 04:35:51;;;;;;;;;;;;;;;;;;4992890;28;19942;-76
2022/04/07 04:38:17;;;;;;;;;;;;;;;;;;4991612;28;19930;-75
2022/04/07 04:40:43;;;;;;;;;;;;;;;;;;4992728;28;19929;-74
2022/04/07 04:43:09;;;;;;;;;;;;;;;;;;4992697;28;19933;-72
2022/04/07 04:45:35;;;;;;;;;;;;;;;;;;4992483;28;19925;-74
2022/04/07 04:48:02;;;;;;;;;;;;;;;;;;4990930;28;19933;-72
2022/04/07 04:50:28;;;;;;;;;;;;;;;;;;4992172;28;19926;-72
2022/04/07 04:52:54;;;;;;;;;;;;;;;;;;4991951;28;20389;-76
2022/04/07 04:55:20;;;;;;;;;;;;;;;;;;4991207;28;20451;-76
2022/04/07 04:57:46;;;;;;;;;;;;;;;;;;4987755;28;19933;-74
2022/04/07 05:00:12;;;;;;;;;;;;;;;;;;4992334;28;19933;-73
2022/04/07 05:02:39;;;;;;;;;;;;;;;;;;4990754;28;19929;-76
2022/04/07 05:05:06;;;;;;;;;;;;;;;;;;4992570;28;20377;-74
2022/04/07 05:07:32;;;;;;;;;;;;;;;;;;4993351;28;20384;-76
2022/04/07 05:09:58;;;;;;;;;;;;;;;;;;4992469;28;20332;-76
2022/04/07 05:12:26;;;;;;;;;;;;;;;;;;4991488;28;19926;-76
2022/04/07 05:14:52;;;;;;;;;;;;;;;;;;4990653;28;19926;-75
2022/04/07 05:17:24;;;;;;;;;;;;;;;;;;4478348;28;10000730;-75
2022/04/07 05:19:50;;;;;;;;;;;;;;;;;;4987747;28;19926;-75
2022/04/07 05:22:16;;;;;;;;;;;;;;;;;;4989336;28;19926;-75
2022/04/07 05:24:42;;;;;;;;;;;;;;;;;;4989375;28;20024;-76
2022/04/07 05:27:08;;;;;;;;;;;;;;;;;;4990231;28;20349;-75
2022/04/07 05:29:34;;;;;;;;;;;;;;;;;;4987432;28;19930;-75
2022/04/07 05:32:00;;;;;;;;;;;;;;;;;;4985350;28;19930;-76
2022/04/07 05:34:27;;;;;;;;;;;;;;;;;;4989837;28;19932;-77
2022/04/07 05:36:53;;;;;;;;;;;;;;;;;;4989859;28;19929;-75
2022/04/07 05:39:19;;;;;;;;;;;;;;;;;;4992069;28;19930;-76
2022/04/07 05:41:45;;;;;;;;;;;;;;;;;;4989973;28;20301;-77
2022/04/07 05:44:12;;;;;;;;;;;;;;;;;;4990659;28;19933;-78
2022/04/07 05:46:38;;;;;;;;;;;;;;;;;;4990363;28;19929;-77
2022/04/07 05:49:04;;;;;;;;;;;;;;;;;;4988962;28;20017;-77
2022/04/07 05:51:30;;;;;;;;;;;;;;;;;;4986960;28;19930;-78
2022/04/07 05:53:56;;;;;;;;;;;;;;;;;;4990489;28;19929;-77
2022/04/07 05:56:30;;;;;;;;;;;;;;;;;;5125398;27;19972;-68
2022/04/07 05:58:56;;;;;;;;;;;;;;;;;;5112621;28;19924;-68
2022/04/07 06:01:22;;;;;;;;;;;;;;;;;;5105183;28;19943;-68
2022/04/07 06:03:48;;;;;;;;;;;;;;;;;;5108783;28;19932;-66
2022/04/07 06:06:15;;;;;;;;;;;;;;;;;;5104761;28;20450;-68
2022/04/07 06:08:41;;;;;;;;;;;;;;;;;;5101906;28;19936;-68
2022/04/07 06:11:07;;;;;;;;;;;;;;;;;;5102848;28;19931;-66
2022/04/07 06:13:34;;;;;;;;;;;;;;;;;;5104126;28;19928;-67
2022/04/07 06:16:01;;;;;;;;;;;;;;;;;;5100542;28;20381;-67
2022/04/07 06:18:27;;;;;;;;;;;;;;;;;;5105833;28;19928;-67
2022/04/07 06:20:53;;;;;;;;;;;;;;;;;;5104210;28;20151;-67
2022/04/07 06:23:20;;;;;;;;;;;;;;;;;;5102920;28;19927;-67
2022/04/07 06:25:46;;;;;;;;;;;;;;;;;;5104097;28;19928;-68
2022/04/07 06:28:12;;;;;;;;;;;;;;;;;;5097780;28;20006;-67
2022/04/07 06:30:38;;;;;;;;;;;;;;;;;;5099772;28;19928;-68
2022/04/07 06:33:04;;;;;;;;;;;;;;;;;;5104065;28;19934;-68
2022/04/07 06:35:30;;;;;;;;;;;;;;;;;;5103980;28;19927;-70
2022/04/07 06:37:57;;;;;;;;;;;;;;;;;;5103162;28;19928;-71
2022/04/07 06:40:23;;;;;;;;;;;;;;;;;;5099496;28;20352;-70
2022/04/07 06:42:49;;;;;;;;;;;;;;;;;;5094926;28;20030;-69
2022/04/07 06:45:15;;;;;;;;;;;;;;;;;;5100672;28;19927;-72
2022/04/07 06:47:42;;;;;;;;;;;;;;;;;;5099063;28;19928;-71
2022/04/07 06:50:09;;;;;;;;;;;;;;;;;;5104163;28;19985;-70
2022/04/07 06:52:35;;;;;;;;;;;;;;;;;;5101493;28;19924;-68
2022/04/07 06:55:01;;;;;;;;;;;;;;;;;;5100433;28;19931;-68
2022/04/07 06:57:27;;;;;;;;;;;;;;;;;;5097574;28;19932;-70
2022/04/07 06:59:53;;;;;;;;;;;;;;;;;;5103862;28;19972;-70
2022/04/07 07:02:19;;;;;;;;;;;;;;;;;;5097274;28;19924;-70
2022/04/07 07:04:45;;;;;;;;;;;;;;;;;;5093391;28;19924;-71
2022/04/07 07:07:11;;;;;;;;;;;;;;;;;;5087484;28;19928;-71
2022/04/07 07:09:38;;;;;;;;;;;;;;;;;;5079177;28;19924;-72
2022/04/07 07:12:04;;;;;;;;;;;;;;;;;;5087116;28;19924;-70
2022/04/07 07:14:30;;;;;;;;;;;;;;;;;;5088075;28;20039;-69
2022/04/07 07:16:56;;;;;;;;;;;;;;;;;;5090342;28;19924;-70
2022/04/07 07:19:26;;;;;;;;;;;;;;;;;;5081792;28;19924;-71
2022/04/07 07:21:52;;;;;;;;;;;;;;;;;;5086236;28;19924;-68
2022/04/07 07:24:18;;;;;;;;;;;;;;;;;;5087378;28;19932;-69
2022/04/07 07:26:44;;;;;;;;;;;;;;;;;;5083760;28;19924;-67
2022/04/07 07:29:11;;;;;;;;;;;;;;;;;;5084850;28;20376;-70
2022/04/07 07:31:37;;;;;;;;;;;;;;;;;;5087000;28;20407;-68
2022/04/07 07:34:04;;;;;;;;;;;;;;;;;;5089932;28;19932;-69
2022/04/07 07:36:30;;;;;;;;;;;;;;;;;;5088337;28;20052;-72
2022/04/07 07:38:56;;;;;;;;;;;;;;;;;;5085392;28;19927;-66
2022/04/07 07:41:22;;;;;;;;;;;;;;;;;;5094253;28;19928;-71
2022/04/07 07:43:49;;;;;;;;;;;;;;;;;;5088979;28;19972;-69
2022/04/07 07:46:16;;;;;;;;;;;;;;;;;;5086060;28;20289;-71
2022/04/07 07:48:42;;;;;;;;;;;;;;;;;;4731366;22;10000306;-68
2022/04/07 07:51:08;;;;;;;;;;;;;;;;;;5050934;28;20486;-69
2022/04/07 07:53:35;;;;;;;;;;;;;;;;;;5049267;28;19952;-68
2022/04/07 07:56:01;;;;;;;;;;;;;;;;;;5031772;28;19983;-70
2022/04/07 07:58:27;;;;;;;;;;;;;;;;;;5031316;28;20401;-69
2022/04/07 08:00:53;;;;;;;;;;;;;;;;;;5029575;28;20432;-69
2022/04/07 08:03:20;;;;;;;;;;;;;;;;;;5030222;28;19928;-70
2022/04/07 08:05:46;;;;;;;;;;;;;;;;;;5034607;28;19925;-69
2022/04/07 08:08:12;;;;;;;;;;;;;;;;;;5036692;28;19929;-69
2022/04/07 08:10:38;;;;;;;;;;;;;;;;;;5036488;28;20416;-70
2022/04/07 08:13:05;;;;;;;;;;;;;;;;;;5030000;28;19929;-70
2022/04/07 08:15:32;;;;;;;;;;;;;;;;;;5032996;28;20028;-69
2022/04/07 08:17:58;;;;;;;;;;;;;;;;;;5026766;28;19929;-69
2022/04/07 08:20:24;;;;;;;;;;;;;;;;;;5039586;28;19929;-70
2022/04/07 08:22:50;;;;;;;;;;;;;;;;;;5042493;28;19929;-70
2022/04/07 08:25:17;;;;;;;;;;;;;;;;;;5040910;28;19925;-67
2022/04/07 08:27:43;;;;;;;;;;;;;;;;;;5030371;28;19925;-67
2022/04/07 08:30:09;;;;;;;;;;;;;;;;;;5035975;28;20631;-67
2022/04/07 08:32:36;;;;;;;;;;;;;;;;;;5029960;28;19929;-67
2022/04/07 08:35:02;;;;;;;;;;;;;;;;;;5031687;28;20412;-67
2022/04/07 08:37:28;;;;;;;;;;;;;;;;;;5028674;28;20390;-67
2022/04/07 08:39:54;;;;;;;;;;;;;;;;;;5030447;28;19936;-67
2022/04/07 08:42:21;;;;;;;;;;;;;;;;;;5027474;28;19968;-67
2022/04/07 08:44:47;;;;;;;;;;;;;;;;;;5030955;28;19932;-67
2022/04/07 08:47:13;;;;;;;;;;;;;;;;;;5030777;28;19926;-67
2022/04/07 08:49:39;;;;;;;;;;;;;;;;;;5032054;28;19929;-66
2022/04/07 08:52:08;;;;;;;;;;;;;;;;;;5032803;28;19925;-66
2022/04/07 08:54:34;;;;;;;;;;;;;;;;;;5041356;28;19925;-67
2022/04/07 08:57:00;;;;;;;;;;;;;;;;;;5041529;28;19926;-69
2022/04/07 08:59:27;;;;;;;;;;;;;;;;;;5030345;28;19955;-68
2022/04/07 09:01:53;;;;;;;;;;;;;;;;;;5033923;28;20381;-68
2022/04/07 09:04:19;;;;;;;;;;;;;;;;;;5034236;28;20039;-71
2022/04/07 09:06:45;;;;;;;;;;;;;;;;;;5033995;28;19940;-70
2022/04/07 09:09:11;;;;;;;;;;;;;;;;;;5031507;28;20384;-66
2022/04/07 09:11:37;;;;;;;;;;;;;;;;;;5029608;28;20456;-72
2022/04/07 09:14:04;;;;;;;;;;;;;;;;;;5039508;28;20410;-72
2022/04/07 09:16:30;;;;;;;;;;;;;;;;;;5037903;28;19929;-71
2022/04/07 09:18:56;;;;;;;;;;;;;;;;;;5037651;28;20318;-70
2022/04/07 09:21:22;;;;;;;;;;;;;;;;;;5037373;28;19930;-71
2022/04/07 09:23:49;;;;;;;;;;;;;;;;;;5041172;28;19933;-72
2022/04/07 09:26:15;;;;;;;;;;;;;;;;;;5039660;28;19983;-68
2022/04/07 09:28:41;;;;;;;;;;;;;;;;;;5041964;28;19933;-67
2022/04/07 09:31:07;;;;;;;;;;;;;;;;;;5029861;28;19929;-67
2022/04/07 09:33:34;;;;;;;;;;;;;;;;;;5025114;28;19932;-67
2022/04/07 09:36:00;;;;;;;;;;;;;;;;;;5027058;28;19929;-67
2022/04/07 09:38:26;;;;;;;;;;;;;;;;;;5023553;28;20012;-67
2022/04/07 09:40:53;;;;;;;;;;;;;;;;;;5028073;28;19948;-68
2022/04/07 09:43:19;;;;;;;;;;;;;;;;;;5029093;28;20036;-69
2022/04/07 09:45:45;;;;;;;;;;;;;;;;;;5032290;28;20301;-69
2022/04/07 09:48:12;;;;;;;;;;;;;;;;;;5037378;28;19925;-71
2022/04/07 09:50:38;;;;;;;;;;;;;;;;;;5027498;28;20036;-72
2022/04/07 09:53:05;;;;;;;;;;;;;;;;;;5030243;28;19932;-70
2022/04/07 09:55:31;;;;;;;;;;;;;;;;;;5029940;28;20347;-70
2022/04/07 09:57:57;;;;;;;;;;;;;;;;;;5030601;28;19932;-69
2022/04/07 10:00:23;;;;;;;;;;;;;;;;;;5030168;28;19947;-70
2022/04/07 10:02:50;;;;;;;;;;;;;;;;;;5040449;28;19929;-70
2022/04/07 10:05:16;;;;;;;;;;;;;;;;;;5045065;28;19925;-72
2022/04/07 10:07:42;;;;;;;;;;;;;;;;;;5047125;28;19988;-69
2022/04/07 10:10:08;;;;;;;;;;;;;;;;;;5050657;28;19936;-72
2022/04/07 10:12:34;;;;;;;;;;;;;;;;;;5049551;28;19983;-72
2022/04/07 10:15:00;;;;;;;;;;;;;;;;;;5048663;28;20012;-73
2022/04/07 10:17:27;;;;;;;;;;;;;;;;;;5046439;28;19935;-72
2022/04/07 10:19:53;;;;;;;;;;;;;;;;;;5049905;28;19948;-72
2022/04/07 10:22:19;;;;;;;;;;;;;;;;;;5049255;28;19931;-72
2022/04/07 10:24:45;;;;;;;;;;;;;;;;;;5050313;28;19939;-72
2022/04/07 10:27:11;;;;;;;;;;;;;;;;;;5050290;28;19940;-71
2022/04/07 10:29:38;;;;;;;;;;;;;;;;;;5048192;28;19913;-72
2022/04/07 10:32:04;;;;;;;;;;;;;;;;;;5049591;28;19929;-72
2022/04/07 10:34:30;;;;;;;;;;;;;;;;;;5040385;28;19925;-71
2022/04/07 10:36:56;;;;;;;;;;;;;;;;;;5041282;28;20016;-70
2022/04/07 10:39:22;;;;;;;;;;;;;;;;;;5041365;28;19960;-70
2022/04/07 10:41:49;;;;;;;;;;;;;;;;;;5040443;28;19925;-72
2022/04/07 10:44:15;;;;;;;;;;;;;;;;;;5041562;28;20238;-70
2022/04/07 10:46:41;;;;;;;;;;;;;;;;;;5035113;28;20390;-70
2022/04/07 10:49:07;;;;;;;;;;;;;;;;;;5030396;28;19925;-70
2022/04/07 10:51:34;;;;;;;;;;;;;;;;;;5037535;28;19925;-72
2022/04/07 10:54:00;;;;;;;;;;;;;;;;;;5034768;28;20027;-70
2022/04/07 10:56:31;;;;;;;;;;;;;;;;;;5032789;28;19932;-70
2022/04/07 10:58:58;;;;;;;;;;;;;;;;;;5029516;28;19925;-71
2022/04/07 11:01:24;;;;;;;;;;;;;;;;;;5030617;28;19929;-71
2022/04/07 11:03:50;;;;;;;;;;;;;;;;;;5032523;28;19929;-70
2022/04/07 11:06:17;;;;;;;;;;;;;;;;;;5032183;28;19925;-70
2022/04/07 11:08:43;;;;;;;;;;;;;;;;;;5033082;28;19929;-70
2022/04/07 11:11:09;;;;;;;;;;;;;;;;;;5031471;28;20415;-69
2022/04/07 11:13:35;;;;;;;;;;;;;;;;;;5031981;28;19929;-71
2022/04/07 11:16:03;;;;;;;;;;;;;;;;;;5028813;28;19929;-71
2022/04/07 11:18:29;;;;;;;;;;;;;;;;;;5030793;28;19929;-68
2022/04/07 11:20:55;;;;;;;;;;;;;;;;;;5039574;28;19933;-67
2022/04/07 11:23:21;;;;;;;;;;;;;;;;;;5048396;28;20004;-68
2022/04/07 11:25:48;;;;;;;;;;;;;;;;;;5040883;28;19925;-67
2022/04/07 11:28:14;;;;;;;;;;;;;;;;;;5046236;28;19936;-67
2022/04/07 11:30:40;;;;;;;;;;;;;;;;;;5031377;28;19930;-68
2022/04/07 11:33:06;;;;;;;;;;;;;;;;;;5030580;28;19936;-68
2022/04/07 11:35:33;;;;;;;;;;;;;;;;;;5031276;28;19929;-68
2022/04/07 11:37:59;;;;;;;;;;;;;;;;;;5034375;28;19928;-69
2022/04/07 11:40:25;;;;;;;;;;;;;;;;;;5030926;28;19948;-69
2022/04/07 11:42:51;;;;;;;;;;;;;;;;;;5029867;28;19929;-69
2022/04/07 11:45:18;;;;;;;;;;;;;;;;;;5030904;28;20219;-70
2022/04/07 11:47:44;;;;;;;;;;;;;;;;;;5030837;28;19929;-68
2022/04/07 11:50:10;;;;;;;;;;;;;;;;;;5030188;28;19975;-68
2022/04/07 11:52:37;;;;;;;;;;;;;;;;;;5029590;28;20454;-68
2022/04/07 11:55:03;;;;;;;;;;;;;;;;;;5031417;28;19925;-68
2022/04/07 11:57:29;;;;;;;;;;;;;;;;;;5032214;28;19925;-69
2022/04/07 11:59:55;;;;;;;;;;;;;;;;;;5031461;28;19932;-69
2022/04/07 12:02:22;;;;;;;;;;;;;;;;;;5030335;28;19957;-68
2022/04/07 12:04:48;;;;;;;;;;;;;;;;;;5032103;28;20375;-70
2022/04/07 12:07:15;;;;;;;;;;;;;;;;;;5031404;28;20279;-71
2022/04/07 12:09:41;;;;;;;;;;;;;;;;;;5031708;28;19929;-71
2022/04/07 12:12:07;;;;;;;;;;;;;;;;;;5033046;28;19925;-71
2022/04/07 12:14:33;;;;;;;;;;;;;;;;;;5040890;28;19929;-71
2022/04/07 12:17:00;;;;;;;;;;;;;;;;;;5042384;28;19940;-71
2022/04/07 12:19:26;;;;;;;;;;;;;;;;;;5031660;28;19925;-70
2022/04/07 12:21:53;;;;;;;;;;;;;;;;;;5036673;28;19932;-70
2022/04/07 12:24:19;;;;;;;;;;;;;;;;;;5038627;28;19955;-72
2022/04/07 12:26:45;;;;;;;;;;;;;;;;;;5039701;28;20416;-70
2022/04/07 12:29:11;;;;;;;;;;;;;;;;;;5037832;28;19945;-71
2022/04/07 12:31:38;;;;;;;;;;;;;;;;;;5032948;28;19932;-71
2022/04/07 12:34:05;;;;;;;;;;;;;;;;;;5041349;28;20321;-72
2022/04/07 12:36:32;;;;;;;;;;;;;;;;;;5039421;28;19991;-70
2022/04/07 12:38:58;;;;;;;;;;;;;;;;;;5041889;28;19929;-70
2022/04/07 12:41:24;;;;;;;;;;;;;;;;;;5039951;28;19929;-72
2022/04/07 12:43:51;;;;;;;;;;;;;;;;;;5040028;28;19943;-69
2022/04/07 12:46:18;;;;;;;;;;;;;;;;;;5036736;28;19932;-69
2022/04/07 12:48:44;;;;;;;;;;;;;;;;;;5039684;28;19925;-69
2022/04/07 12:51:10;;;;;;;;;;;;;;;;;;5036774;28;19951;-68
2022/04/07 12:53:38;;;;;;;;;;;;;;;;;;5041435;28;20059;-68
2022/04/07 12:56:05;;;;;;;;;;;;;;;;;;5040661;28;19925;-67
2022/04/07 12:58:31;;;;;;;;;;;;;;;;;;5040609;28;19943;-66
2022/04/07 13:00:57;;;;;;;;;;;;;;;;;;5039451;28;19955;-70
2022/04/07 13:03:28;;;;;;;;;;;;;;;;;;5034675;28;19929;-66
2022/04/07 13:05:54;;;;;;;;;;;;;;;;;;5039848;28;19997;-66
2022/04/07 13:08:20;;;;;;;;;;;;;;;;;;5035272;28;19929;-65
2022/04/07 13:10:46;;;;;;;;;;;;;;;;;;5029866;28;19936;-67
2022/04/07 13:13:14;;;;;;;;;;;;;;;;;;5016281;28;20424;-65
2022/04/07 13:15:40;;;;;;;;;;;;;;;;;;5024356;28;19929;-66
2022/04/07 13:18:06;;;;;;;;;;;;;;;;;;5028141;28;19929;-66
2022/04/07 13:20:32;;;;;;;;;;;;;;;;;;5029735;28;21489;-66
2022/04/07 13:22:58;;;;;;;;;;;;;;;;;;5028511;28;20196;-66
2022/04/07 13:25:25;;;;;;;;;;;;;;;;;;5025378;28;19931;-66
2022/04/07 13:27:51;;;;;;;;;;;;;;;;;;5030509;28;19992;-66
2022/04/07 13:30:17;;;;;;;;;;;;;;;;;;5029410;28;19936;-67
2022/04/07 13:32:43;;;;;;;;;;;;;;;;;;5024213;28;20114;-66
2022/04/07 13:35:10;;;;;;;;;;;;;;;;;;5029127;28;19936;-67
2022/04/07 13:37:36;;;;;;;;;;;;;;;;;;5025239;28;19929;-67
2022/04/07 13:40:02;;;;;;;;;;;;;;;;;;5029582;28;19926;-68
2022/04/07 13:42:30;;;;;;;;;;;;;;;;;;5025908;28;19937;-69
2022/04/07 13:44:56;;;;;;;;;;;;;;;;;;5023528;28;19929;-65
2022/04/07 13:47:22;;;;;;;;;;;;;;;;;;5028649;28;19936;-66
2022/04/07 13:49:48;;;;;;;;;;;;;;;;;;5053299;22;20129;-77
2022/04/07 13:52:14;;;;;;;;;;;;;;;;;;5040463;28;19929;-76
2022/04/07 13:54:41;;;;;;;;;;;;;;;;;;5047622;28;19932;-76
2022/04/07 13:57:07;;;;;;;;;;;;;;;;;;5045908;28;20006;-77
2022/04/07 13:59:34;;;;;;;;;;;;;;;;;;5045332;28;19935;-77
2022/04/07 14:02:00;;;;;;;;;;;;;;;;;;5029437;28;20362;-77
2022/04/07 14:04:26;;;;;;;;;;;;;;;;;;5035008;28;20193;-76
2022/04/07 14:06:52;;;;;;;;;;;;;;;;;;5041875;28;20170;-76
2022/04/07 14:09:18;;;;;;;;;;;;;;;;;;5038069;28;19932;-76
2022/04/07 14:11:44;;;;;;;;;;;;;;;;;;5044022;28;20095;-76
2022/04/07 14:14:11;;;;;;;;;;;;;;;;;;5040923;28;19940;-76
2022/04/07 14:16:37;;;;;;;;;;;;;;;;;;5039016;28;20002;-76
2022/04/07 14:19:03;;;;;;;;;;;;;;;;;;5035127;28;19940;-77
2022/04/07 14:21:29;;;;;;;;;;;;;;;;;;5042613;28;19929;-75
2022/04/07 14:23:55;;;;;;;;;;;;;;;;;;5038082;28;20483;-76
2022/04/07 14:26:22;;;;;;;;;;;;;;;;;;5036566;28;20295;-76
2022/04/07 14:28:48;;;;;;;;;;;;;;;;;;5043430;28;19929;-78
2022/04/07 14:31:14;;;;;;;;;;;;;;;;;;5041591;28;20044;-76
2022/04/07 14:33:40;;;;;;;;;;;;;;;;;;5040210;28;19932;-74
2022/04/07 14:36:07;;;;;;;;;;;;;;;;;;5037027;28;19929;-74
2022/04/07 14:38:33;;;;;;;;;;;;;;;;;;5041791;28;20455;-76
2022/04/07 14:40:59;;;;;;;;;;;;;;;;;;5045254;28;20429;-77
2022/04/07 14:43:26;;;;;;;;;;;;;;;;;;5046745;28;19963;-76
2022/04/07 14:45:53;;;;;;;;;;;;;;;;;;5046173;28;19959;-75
2022/04/07 14:48:19;;;;;;;;;;;;;;;;;;5046036;28;19985;-78
2022/04/07 14:50:47;;;;;;;;;;;;;;;;;;5046065;28;19967;-76
2022/04/07 14:53:13;;;;;;;;;;;;;;;;;;5036401;28;19964;-75
2022/04/07 14:55:39;;;;;;;;;;;;;;;;;;5043275;28;20409;-77
2022/04/07 14:58:11;;;;;;;;;;;;;;;;;;5040299;28;20310;-75
2022/04/07 15:00:38;;;;;;;;;;;;;;;;;;4695212;28;10000540;-75
2022/04/07 15:03:04;;;;;;;;;;;;;;;;;;5042048;28;19932;-74
2022/04/07 15:05:30;;;;;;;;;;;;;;;;;;5040601;28;19929;-75
2022/04/07 15:07:58;;;;;;;;;;;;;;;;;;5044403;28;19940;-74
2022/04/07 15:10:24;;;;;;;;;;;;;;;;;;5041262;28;19928;-73
2022/04/07 15:12:51;;;;;;;;;;;;;;;;;;5046254;28;19932;-76
2022/04/07 15:15:18;;;;;;;;;;;;;;;;;;5048818;28;19964;-77
2022/04/07 15:17:44;;;;;;;;;;;;;;;;;;5053222;28;20055;-75
2022/04/07 15:20:10;;;;;;;;;;;;;;;;;;5049136;28;20015;-75
2022/04/07 15:22:36;;;;;;;;;;;;;;;;;;5046269;28;19924;-74
2022/04/07 15:25:02;;;;;;;;;;;;;;;;;;5042165;28;19928;-73
2022/04/07 15:27:28;;;;;;;;;;;;;;;;;;5044448;28;19932;-75
2022/04/07 15:29:54;;;;;;;;;;;;;;;;;;4701655;28;10000285;-75
2022/04/07 15:32:23;;;;;;;;;;;;;;;;;;5040121;28;20451;-78
2022/04/07 15:34:49;;;;;;;;;;;;;;;;;;5045476;28;19948;-73
2022/04/07 15:37:16;;;;;;;;;;;;;;;;;;5040850;28;19928;-75
2022/04/07 15:39:42;;;;;;;;;;;;;;;;;;5044940;28;19936;-77
2022/04/07 15:42:08;;;;;;;;;;;;;;;;;;5042154;28;19928;-76
2022/04/07 15:44:34;;;;;;;;;;;;;;;;;;5043163;28;19933;-74
2022/04/07 15:47:00;;;;;;;;;;;;;;;;;;5043608;28;20617;-76
2022/04/07 15:49:26;;;;;;;;;;;;;;;;;;5042488;28;19928;-78
2022/04/07 15:51:53;;;;;;;;;;;;;;;;;;5041426;28;19967;-77
2022/04/07 15:54:19;;;;;;;;;;;;;;;;;;5044744;28;20020;-76
2022/04/07 15:56:45;;;;;;;;;;;;;;;;;;5045647;28;19929;-77
2022/04/07 15:59:11;;;;;;;;;;;;;;;;;;5044209;28;19932;-75
2022/04/07 16:01:37;;;;;;;;;;;;;;;;;;5038647;28;20424;-74
2022/04/07 16:04:03;;;;;;;;;;;;;;;;;;5044388;28;19940;-74
2022/04/07 16:06:30;;;;;;;;;;;;;;;;;;5040911;28;19929;-75
2022/04/07 16:08:57;;;;;;;;;;;;;;;;;;5040876;28;19925;-74
2022/04/07 16:11:23;;;;;;;;;;;;;;;;;;5036778;28;19941;-73
2022/04/07 16:13:49;;;;;;;;;;;;;;;;;;5043432;28;20401;-77
2022/04/07 16:16:15;;;;;;;;;;;;;;;;;;5041072;28;19936;-76
2022/04/07 16:18:41;;;;;;;;;;;;;;;;;;5045435;28;19933;-73
2022/04/07 16:21:07;;;;;;;;;;;;;;;;;;5043455;28;20202;-76
2022/04/07 16:23:35;;;;;;;;;;;;;;;;;;5040107;28;20133;-76
2022/04/07 16:26:02;;;;;;;;;;;;;;;;;;5046571;28;20023;-76
2022/04/07 16:28:28;;;;;;;;;;;;;;;;;;5043508;28;20547;-75
2022/04/07 16:30:55;;;;;;;;;;;;;;;;;;5041518;28;20426;-75
2022/04/07 16:33:21;;;;;;;;;;;;;;;;;;5046247;28;20022;-73
2022/04/07 16:35:48;;;;;;;;;;;;;;;;;;5048475;28;19950;-76